sensor_id;sensor_type;location;lat;lon;timestamp;pressure;altitude;pressure_sealevel;temperature;humidity
23361;BME280;11852;50.082;18.554;2023-02-13T00:00:25;100605.51;;;2.65;88.51
23361;BME280;11852;50.082;18.554;2023-02-13T00:01:32;100602.0;;;2.61;88.68
23361;BME280;11852;50.082;18.554;2023-02-13T00:02:38;100601.0;;;2.57;88.81
23361;BME280;11852;50.082;18.554;2023-02-13T00:03:46;100600.5;;;2.59;88.77
23361;BME280;11852;50.082;18.554;2023-02-13T00:04:53;100598.0;;;2.61;88.7
23361;BME280;11852;50.082;18.554;2023-02-13T00:06:01;100599.5;;;2.57;88.82
23361;BME280;11852;50.082;18.554;2023-02-13T00:07:08;100599.5;;;2.57;88.79
23361;BME280;11852;50.082;18.554;2023-02-13T00:08:14;100597.0;;;2.65;88.57
23361;BME280;11852;50.082;18.554;2023-02-13T00:09:21;100597.0;;;2.6;88.76
23361;BME280;11852;50.082;18.554;2023-02-13T00:10:28;100593.5;;;2.63;88.62
23361;BME280;11852;50.082;18.554;2023-02-13T00:11:35;100594.5;;;2.55;88.96
23361;BME280;11852;50.082;18.554;2023-02-13T00:12:42;100597.0;;;2.52;89.06
23361;BME280;11852;50.082;18.554;2023-02-13T00:13:50;100597.0;;;2.52;89.04
23361;BME280;11852;50.082;18.554;2023-02-13T00:14:57;100596.5;;;2.51;88.99
23361;BME280;11852;50.082;18.554;2023-02-13T00:16:04;100593.0;;;2.49;89.08
23361;BME280;11852;50.082;18.554;2023-02-13T00:17:12;100593.5;;;2.53;88.99
23361;BME280;11852;50.082;18.554;2023-02-13T00:18:18;100593.0;;;2.53;88.97
23361;BME280;11852;50.082;18.554;2023-02-13T00:19:25;100595.5;;;2.47;89.1
23361;BME280;11852;50.082;18.554;2023-02-13T00:20:32;100597.5;;;2.66;88.51
23361;BME280;11852;50.082;18.554;2023-02-13T00:21:40;100598.0;;;2.59;88.69
23361;BME280;11852;50.082;18.554;2023-02-13T00:22:47;100597.0;;;2.58;88.72
23361;BME280;11852;50.082;18.554;2023-02-13T00:23:54;100598.0;;;2.64;88.47
23361;BME280;11852;50.082;18.554;2023-02-13T00:25:05;100596.0;;;2.65;88.39
23361;BME280;11852;50.082;18.554;2023-02-13T00:26:10;100597.5;;;2.6;88.6
23361;BME280;11852;50.082;18.554;2023-02-13T00:27:16;100597.5;;;2.62;88.51
23361;BME280;11852;50.082;18.554;2023-02-13T00:28:23;100594.5;;;2.56;88.77
23361;BME280;11852;50.082;18.554;2023-02-13T00:29:30;100594.0;;;2.61;88.52
23361;BME280;11852;50.082;18.554;2023-02-13T00:30:37;100589.0;;;2.6;88.53
23361;BME280;11852;50.082;18.554;2023-02-13T00:31:44;100595.49;;;2.73;88.19
23361;BME280;11852;50.082;18.554;2023-02-13T00:32:52;100598.5;;;2.73;88.02
23361;BME280;11852;50.082;18.554;2023-02-13T00:33:59;100599.0;;;2.82;88.01
23361;BME280;11852;50.082;18.554;2023-02-13T00:35:06;100600.0;;;2.82;88.01
23361;BME280;11852;50.082;18.554;2023-02-13T00:36:20;100600.0;;;2.84;87.93
23361;BME280;11852;50.082;18.554;2023-02-13T00:37:26;100597.5;;;2.89;87.75
23361;BME280;11852;50.082;18.554;2023-02-13T00:38:33;100599.0;;;2.75;88.19
23361;BME280;11852;50.082;18.554;2023-02-13T00:39:40;100600.0;;;2.7;88.29
23361;BME280;11852;50.082;18.554;2023-02-13T00:40:46;100601.0;;;2.68;88.35
23361;BME280;11852;50.082;18.554;2023-02-13T00:41:53;100604.0;;;2.73;88.19
23361;BME280;11852;50.082;18.554;2023-02-13T00:43:00;100605.0;;;2.76;88.15
23361;BME280;11852;50.082;18.554;2023-02-13T00:44:08;100604.51;;;2.71;88.33
23361;BME280;11852;50.082;18.554;2023-02-13T00:45:15;100605.01;;;2.8;87.99
23361;BME280;11852;50.082;18.554;2023-02-13T00:46:22;100605.5;;;2.72;88.27
23361;BME280;11852;50.082;18.554;2023-02-13T00:47:29;100599.5;;;2.67;88.33
23361;BME280;11852;50.082;18.554;2023-02-13T00:48:36;100599.5;;;2.59;88.6
23361;BME280;11852;50.082;18.554;2023-02-13T00:49:43;100600.0;;;2.61;88.62
23361;BME280;11852;50.082;18.554;2023-02-13T00:50:53;100602.5;;;2.7;88.27
23361;BME280;11852;50.082;18.554;2023-02-13T00:52:00;100601.5;;;2.72;88.3
23361;BME280;11852;50.082;18.554;2023-02-13T00:53:07;100604.51;;;2.74;88.22
23361;BME280;11852;50.082;18.554;2023-02-13T00:54:14;100604.51;;;2.7;88.36
23361;BME280;11852;50.082;18.554;2023-02-13T00:55:24;100604.51;;;2.75;88.15
23361;BME280;11852;50.082;18.554;2023-02-13T00:56:28;100604.5;;;2.72;88.28
23361;BME280;11852;50.082;18.554;2023-02-13T00:57:35;100601.5;;;2.66;88.46
23361;BME280;11852;50.082;18.554;2023-02-13T00:58:42;100602.5;;;2.72;88.24
23361;BME280;11852;50.082;18.554;2023-02-13T00:59:48;100599.5;;;2.74;88.26
23361;BME280;11852;50.082;18.554;2023-02-13T01:00:55;100597.5;;;2.76;88.23
23361;BME280;11852;50.082;18.554;2023-02-13T01:02:02;100595.49;;;2.69;88.38
23361;BME280;11852;50.082;18.554;2023-02-13T01:03:09;100595.49;;;2.7;88.38
23361;BME280;11852;50.082;18.554;2023-02-13T01:04:16;100593.0;;;2.69;88.33
23361;BME280;11852;50.082;18.554;2023-02-13T01:05:23;100591.5;;;2.62;88.57
23361;BME280;11852;50.082;18.554;2023-02-13T01:06:30;100593.0;;;2.59;88.71
23361;BME280;11852;50.082;18.554;2023-02-13T01:07:37;100591.0;;;2.59;88.74
23361;BME280;11852;50.082;18.554;2023-02-13T01:08:44;100588.5;;;2.57;88.83
23361;BME280;11852;50.082;18.554;2023-02-13T01:09:51;100586.5;;;2.67;88.46
23361;BME280;11852;50.082;18.554;2023-02-13T01:10:58;100584.0;;;2.58;88.81
23361;BME280;11852;50.082;18.554;2023-02-13T01:12:05;100584.0;;;2.55;88.96
23361;BME280;11852;50.082;18.554;2023-02-13T01:13:13;100582.5;;;2.59;88.82
23361;BME280;11852;50.082;18.554;2023-02-13T01:14:19;100586.5;;;2.64;88.74
23361;BME280;11852;50.082;18.554;2023-02-13T01:15:27;100585.5;;;2.61;88.81
23361;BME280;11852;50.082;18.554;2023-02-13T01:16:34;100587.5;;;2.77;88.28
23361;BME280;11852;50.082;18.554;2023-02-13T01:17:40;100586.0;;;2.74;88.44
23361;BME280;11852;50.082;18.554;2023-02-13T01:18:47;100588.5;;;2.77;88.39
23361;BME280;11852;50.082;18.554;2023-02-13T01:19:54;100588.5;;;2.84;88.17
23361;BME280;11852;50.082;18.554;2023-02-13T01:21:04;100586.5;;;2.74;88.49
23361;BME280;11852;50.082;18.554;2023-02-13T01:22:08;100589.0;;;2.73;88.46
23361;BME280;11852;50.082;18.554;2023-02-13T01:23:15;100587.0;;;2.73;88.44
23361;BME280;11852;50.082;18.554;2023-02-13T01:24:22;100585.0;;;2.77;88.38
23361;BME280;11852;50.082;18.554;2023-02-13T01:25:29;100585.0;;;2.8;88.31
23361;BME280;11852;50.082;18.554;2023-02-13T01:26:36;100585.0;;;2.8;88.34
23361;BME280;11852;50.082;18.554;2023-02-13T01:27:43;100583.5;;;2.78;88.38
23361;BME280;11852;50.082;18.554;2023-02-13T01:28:53;100580.0;;;2.74;88.36
23361;BME280;11852;50.082;18.554;2023-02-13T01:29:59;100580.5;;;2.76;88.36
23361;BME280;11852;50.082;18.554;2023-02-13T01:31:06;100578.5;;;2.75;88.42
23361;BME280;11852;50.082;18.554;2023-02-13T01:32:14;100576.0;;;2.77;88.34
23361;BME280;11852;50.082;18.554;2023-02-13T01:33:24;100574.0;;;2.68;88.62
23361;BME280;11852;50.082;18.554;2023-02-13T01:34:31;100575.5;;;2.73;88.46
23361;BME280;11852;50.082;18.554;2023-02-13T01:35:38;100577.0;;;2.69;88.68
23361;BME280;11852;50.082;18.554;2023-02-13T01:36:45;100575.5;;;2.85;88.2
23361;BME280;11852;50.082;18.554;2023-02-13T01:37:52;100574.0;;;2.92;88.02
23361;BME280;11852;50.082;18.554;2023-02-13T01:38:59;100577.5;;;2.93;87.96
23361;BME280;11852;50.082;18.554;2023-02-13T01:40:07;100579.51;;;2.88;88.12
23361;BME280;11852;50.082;18.554;2023-02-13T01:41:13;100581.5;;;2.88;88.14
23361;BME280;11852;50.082;18.554;2023-02-13T01:42:21;100577.0;;;2.97;87.91
23361;BME280;11852;50.082;18.554;2023-02-13T01:44:54;100574.5;;;2.83;88.38
23361;BME280;11852;50.082;18.554;2023-02-13T01:45:53;100565.0;;;2.8;88.37
23361;BME280;11852;50.082;18.554;2023-02-13T01:46:58;100564.0;;;2.8;88.42
23361;BME280;11852;50.082;18.554;2023-02-13T01:48:06;100562.5;;;2.81;88.49
23361;BME280;11852;50.082;18.554;2023-02-13T01:49:14;100562.5;;;2.89;88.22
23361;BME280;11852;50.082;18.554;2023-02-13T01:51:32;100561.0;;;2.87;88.33
23361;BME280;11852;50.082;18.554;2023-02-13T01:52:40;100561.0;;;2.86;88.37
23361;BME280;11852;50.082;18.554;2023-02-13T01:53:55;100561.0;;;2.91;88.16
23361;BME280;11852;50.082;18.554;2023-02-13T01:54:59;100562.5;;;2.92;88.18
23361;BME280;11852;50.082;18.554;2023-02-13T01:57:22;100563.0;;;3.01;87.86
23361;BME280;11852;50.082;18.554;2023-02-13T01:58:29;100560.5;;;3.05;87.78
23361;BME280;11852;50.082;18.554;2023-02-13T01:59:47;100560.5;;;3.02;87.88
23361;BME280;11852;50.082;18.554;2023-02-13T02:00:50;100559.5;;;3.01;87.85
23361;BME280;11852;50.082;18.554;2023-02-13T02:01:57;100558.5;;;2.92;88.15
23361;BME280;11852;50.082;18.554;2023-02-13T02:03:06;100555.01;;;3.03;87.75
23361;BME280;11852;50.082;18.554;2023-02-13T02:04:17;100558.0;;;3.09;87.65
23361;BME280;11852;50.082;18.554;2023-02-13T02:05:23;100555.5;;;3.05;87.79
23361;BME280;11852;50.082;18.554;2023-02-13T02:06:35;100555.01;;;3.03;87.69
23361;BME280;11852;50.082;18.554;2023-02-13T02:07:40;100556.0;;;2.96;87.9
23361;BME280;11852;50.082;18.554;2023-02-13T02:08:48;100548.5;;;2.9;87.98
23361;BME280;11852;50.082;18.554;2023-02-13T02:09:55;100551.5;;;2.88;88.02
23361;BME280;11852;50.082;18.554;2023-02-13T02:11:04;100550.5;;;2.92;87.87
23361;BME280;11852;50.082;18.554;2023-02-13T02:12:17;100549.5;;;2.82;88.26
23361;BME280;11852;50.082;18.554;2023-02-13T02:13:21;100547.5;;;2.84;88.2
23361;BME280;11852;50.082;18.554;2023-02-13T02:14:27;100546.5;;;2.73;88.59
23361;BME280;11852;50.082;18.554;2023-02-13T02:15:34;100546.0;;;2.78;88.44
23361;BME280;11852;50.082;18.554;2023-02-13T02:16:41;100546.0;;;2.88;88.07
23361;BME280;11852;50.082;18.554;2023-02-13T02:17:48;100546.0;;;2.75;88.57
23361;BME280;11852;50.082;18.554;2023-02-13T02:18:56;100540.5;;;2.72;88.6
23361;BME280;11852;50.082;18.554;2023-02-13T02:21:31;100543.0;;;2.68;88.77
23361;BME280;11852;50.082;18.554;2023-02-13T02:33:53;100537.0;;;2.72;88.8
23361;BME280;11852;50.082;18.554;2023-02-13T02:36:14;100535.0;;;2.81;88.59
23361;BME280;11852;50.082;18.554;2023-02-13T02:37:49;100534.0;;;2.8;88.59
23361;BME280;11852;50.082;18.554;2023-02-13T02:43:58;100537.5;;;2.82;88.46
23361;BME280;11852;50.082;18.554;2023-02-13T02:45:16;100537.0;;;2.83;88.47
23361;BME280;11852;50.082;18.554;2023-02-13T02:47:22;100540.5;;;2.81;88.53
23361;BME280;11852;50.082;18.554;2023-02-13T02:48:32;100541.0;;;2.7;88.92
23361;BME280;11852;50.082;18.554;2023-02-13T02:49:43;100536.5;;;2.76;88.57
23361;BME280;11852;50.082;18.554;2023-02-13T02:52:10;100539.5;;;2.81;88.6
23361;BME280;11852;50.082;18.554;2023-02-13T02:54:44;100536.0;;;2.9;88.28
23361;BME280;11852;50.082;18.554;2023-02-13T02:55:51;100537.5;;;2.82;88.59
23361;BME280;11852;50.082;18.554;2023-02-13T02:56:57;100537.5;;;2.84;88.46
23361;BME280;11852;50.082;18.554;2023-02-13T02:59:27;100536.0;;;2.85;88.49
23361;BME280;11852;50.082;18.554;2023-02-13T03:00:40;100535.5;;;2.76;88.81
23361;BME280;11852;50.082;18.554;2023-02-13T03:01:52;100532.0;;;2.84;88.62
23361;BME280;11852;50.082;18.554;2023-02-13T03:03:04;100533.0;;;2.84;88.62
23361;BME280;11852;50.082;18.554;2023-02-13T03:04:23;100531.5;;;2.97;88.18
23361;BME280;11852;50.082;18.554;2023-02-13T03:05:33;100530.01;;;2.86;88.54
23361;BME280;11852;50.082;18.554;2023-02-13T03:07:55;100534.0;;;2.91;88.29
23361;BME280;11852;50.082;18.554;2023-02-13T03:09:09;100533.5;;;2.83;88.51
23361;BME280;11852;50.082;18.554;2023-02-13T03:10:26;100535.5;;;2.79;88.63
23361;BME280;11852;50.082;18.554;2023-02-13T03:11:34;100535.5;;;2.77;88.68
23361;BME280;11852;50.082;18.554;2023-02-13T03:13:53;100536.0;;;2.86;88.43
23361;BME280;11852;50.082;18.554;2023-02-13T03:15:01;100537.5;;;2.74;88.83
23361;BME280;11852;50.082;18.554;2023-02-13T03:16:15;100539.0;;;2.88;88.31
23361;BME280;11852;50.082;18.554;2023-02-13T03:17:25;100537.0;;;2.85;88.38
23361;BME280;11852;50.082;18.554;2023-02-13T03:18:41;100540.5;;;2.93;88.24
23361;BME280;11852;50.082;18.554;2023-02-13T03:21:16;100536.5;;;2.87;88.5
23361;BME280;11852;50.082;18.554;2023-02-13T03:23:46;100536.5;;;2.86;88.49
23361;BME280;11852;50.082;18.554;2023-02-13T03:26:17;100539.5;;;2.87;88.48
23361;BME280;11852;50.082;18.554;2023-02-13T03:29:58;100540.5;;;2.95;88.21
23361;BME280;11852;50.082;18.554;2023-02-13T03:31:11;100542.51;;;2.93;88.34
23361;BME280;11852;50.082;18.554;2023-02-13T03:32:20;100543.0;;;3.03;88.04
23361;BME280;11852;50.082;18.554;2023-02-13T03:34:15;100541.0;;;2.92;88.44
23361;BME280;11852;50.082;18.554;2023-02-13T03:34:41;100543.5;;;2.85;88.61
23361;BME280;11852;50.082;18.554;2023-02-13T03:37:09;100543.5;;;2.97;88.26
23361;BME280;11852;50.082;18.554;2023-02-13T03:38:21;100545.49;;;3.02;88.28
23361;BME280;11852;50.082;18.554;2023-02-13T03:40:59;100544.99;;;3.08;88.27
23361;BME280;11852;50.082;18.554;2023-02-13T03:42:00;100547.5;;;3.07;88.18
23361;BME280;11852;50.082;18.554;2023-02-13T03:43:09;100545.49;;;2.99;88.41
23361;BME280;11852;50.082;18.554;2023-02-13T03:44:17;100547.0;;;2.97;88.32
23361;BME280;11852;50.082;18.554;2023-02-13T03:45:28;100545.49;;;2.87;88.76
23361;BME280;11852;50.082;18.554;2023-02-13T03:46:35;100544.99;;;2.9;88.65
23361;BME280;11852;50.082;18.554;2023-02-13T03:47:41;100542.0;;;2.94;88.56
23361;BME280;11852;50.082;18.554;2023-02-13T03:48:53;100543.0;;;3.02;88.3
23361;BME280;11852;50.082;18.554;2023-02-13T03:50:05;100544.5;;;3.02;88.32
23361;BME280;11852;50.082;18.554;2023-02-13T03:51:13;100546.0;;;3.03;88.29
23361;BME280;11852;50.082;18.554;2023-02-13T03:52:29;100547.5;;;3.15;87.92
23361;BME280;11852;50.082;18.554;2023-02-13T03:53:27;100546.0;;;3.21;87.79
23361;BME280;11852;50.082;18.554;2023-02-13T03:54:45;100545.49;;;3.2;87.77
23361;BME280;11852;50.082;18.554;2023-02-13T03:55:52;100545.49;;;3.27;87.69
23361;BME280;11852;50.082;18.554;2023-02-13T03:57:05;100547.0;;;3.28;87.68
23361;BME280;11852;50.082;18.554;2023-02-13T03:58:22;100544.49;;;3.31;87.58
23361;BME280;11852;50.082;18.554;2023-02-13T03:59:31;100541.0;;;3.3;87.6
23361;BME280;11852;50.082;18.554;2023-02-13T04:00:41;100543.0;;;3.33;87.47
23361;BME280;11852;50.082;18.554;2023-02-13T04:01:59;100542.5;;;3.28;87.62
23361;BME280;11852;50.082;18.554;2023-02-13T04:02:57;100544.5;;;3.17;87.91
23361;BME280;11852;50.082;18.554;2023-02-13T04:04:08;100542.01;;;3.17;87.85
23361;BME280;11852;50.082;18.554;2023-02-13T04:05:16;100534.5;;;2.99;88.46
23361;BME280;11852;50.082;18.554;2023-02-13T04:06:23;100535.0;;;2.94;88.63
23361;BME280;11852;50.082;18.554;2023-02-13T04:07:28;100535.5;;;3.13;88.01
23361;BME280;11852;50.082;18.554;2023-02-13T04:08:35;100534.5;;;3.02;88.43
23361;BME280;11852;50.082;18.554;2023-02-13T04:09:42;100534.0;;;3.07;88.26
23361;BME280;11852;50.082;18.554;2023-02-13T04:10:53;100531.0;;;3.01;88.47
23361;BME280;11852;50.082;18.554;2023-02-13T04:13:13;100532.5;;;3.12;88.14
23361;BME280;11852;50.082;18.554;2023-02-13T04:14:19;100532.99;;;3.14;88.04
23361;BME280;11852;50.082;18.554;2023-02-13T04:15:31;100531.0;;;3.19;87.88
23361;BME280;11852;50.082;18.554;2023-02-13T04:16:43;100530.01;;;3.2;87.88
23361;BME280;11852;50.082;18.554;2023-02-13T04:18:02;100530.01;;;3.4;87.8
23361;BME280;11852;50.082;18.554;2023-02-13T04:18:56;100527.5;;;3.47;87.77
23361;BME280;11852;50.082;18.554;2023-02-13T04:20:03;100529.0;;;3.45;87.9
23361;BME280;11852;50.082;18.554;2023-02-13T04:21:10;100529.5;;;3.47;87.93
23361;BME280;11852;50.082;18.554;2023-02-13T04:22:17;100526.5;;;3.45;87.91
23361;BME280;11852;50.082;18.554;2023-02-13T04:23:24;100528.5;;;3.41;87.96
23361;BME280;11852;50.082;18.554;2023-02-13T04:24:30;100527.5;;;3.48;87.91
23361;BME280;11852;50.082;18.554;2023-02-13T04:25:38;100528.5;;;3.37;87.96
23361;BME280;11852;50.082;18.554;2023-02-13T04:26:44;100530.0;;;3.33;88.06
23361;BME280;11852;50.082;18.554;2023-02-13T04:27:51;100532.5;;;3.43;88.1
23361;BME280;11852;50.082;18.554;2023-02-13T04:28:59;100535.0;;;3.51;88.04
23361;BME280;11852;50.082;18.554;2023-02-13T04:30:06;100534.0;;;3.53;87.99
23361;BME280;11852;50.082;18.554;2023-02-13T04:31:13;100534.0;;;3.53;88.04
23361;BME280;11852;50.082;18.554;2023-02-13T04:32:20;100532.99;;;3.53;88.15
23361;BME280;11852;50.082;18.554;2023-02-13T04:33:27;100531.5;;;3.54;88.18
23361;BME280;11852;50.082;18.554;2023-02-13T04:34:35;100529.0;;;3.58;88.14
23361;BME280;11852;50.082;18.554;2023-02-13T04:35:42;100528.0;;;3.57;88.25
23361;BME280;11852;50.082;18.554;2023-02-13T04:36:49;100528.5;;;3.58;88.29
23361;BME280;11852;50.082;18.554;2023-02-13T04:37:56;100527.0;;;3.58;88.29
23361;BME280;11852;50.082;18.554;2023-02-13T04:39:03;100528.5;;;3.57;88.49
23361;BME280;11852;50.082;18.554;2023-02-13T04:40:10;100526.5;;;3.6;88.43
23361;BME280;11852;50.082;18.554;2023-02-13T04:41:17;100526.5;;;3.66;88.24
23361;BME280;11852;50.082;18.554;2023-02-13T04:42:24;100527.5;;;3.68;88.29
23361;BME280;11852;50.082;18.554;2023-02-13T04:43:31;100530.0;;;3.67;88.35
23361;BME280;11852;50.082;18.554;2023-02-13T04:44:37;100529.0;;;3.66;88.43
23361;BME280;11852;50.082;18.554;2023-02-13T04:45:47;100526.5;;;3.7;88.29
23361;BME280;11852;50.082;18.554;2023-02-13T04:46:54;100528.0;;;3.67;88.42
23361;BME280;11852;50.082;18.554;2023-02-13T04:48:01;100527.0;;;3.63;88.54
23361;BME280;11852;50.082;18.554;2023-02-13T04:49:09;100526.0;;;3.71;88.4
23361;BME280;11852;50.082;18.554;2023-02-13T04:50:17;100526.0;;;3.74;88.56
23361;BME280;11852;50.082;18.554;2023-02-13T04:51:23;100526.5;;;3.75;88.68
23361;BME280;11852;50.082;18.554;2023-02-13T04:52:30;100528.5;;;3.45;88.6
23361;BME280;11852;50.082;18.554;2023-02-13T04:53:40;100530.5;;;3.38;88.38
23361;BME280;11852;50.082;18.554;2023-02-13T04:54:45;100531.0;;;3.3;88.46
23361;BME280;11852;50.082;18.554;2023-02-13T04:55:52;100535.5;;;3.26;88.38
23361;BME280;11852;50.082;18.554;2023-02-13T04:56:59;100534.5;;;3.17;88.65
23361;BME280;11852;50.082;18.554;2023-02-13T04:58:06;100537.0;;;3.15;88.67
23361;BME280;11852;50.082;18.554;2023-02-13T04:59:13;100537.0;;;3.16;88.6
23361;BME280;11852;50.082;18.554;2023-02-13T05:00:21;100535.0;;;3.14;88.69
23361;BME280;11852;50.082;18.554;2023-02-13T05:01:27;100531.0;;;3.13;88.76
23361;BME280;11852;50.082;18.554;2023-02-13T05:02:34;100531.0;;;3.13;88.71
23361;BME280;11852;50.082;18.554;2023-02-13T05:03:41;100530.5;;;3.18;88.54
23361;BME280;11852;50.082;18.554;2023-02-13T05:04:48;100530.0;;;3.29;88.24
23361;BME280;11852;50.082;18.554;2023-02-13T05:05:55;100532.5;;;3.25;88.42
23361;BME280;11852;50.082;18.554;2023-02-13T05:07:02;100531.99;;;3.14;88.74
23361;BME280;11852;50.082;18.554;2023-02-13T05:08:09;100530.51;;;3.2;88.46
23361;BME280;11852;50.082;18.554;2023-02-13T05:09:16;100531.0;;;3.15;88.68
23361;BME280;11852;50.082;18.554;2023-02-13T05:10:23;100533.5;;;3.17;88.51
23361;BME280;11852;50.082;18.554;2023-02-13T05:11:30;100531.0;;;3.24;88.32
23361;BME280;11852;50.082;18.554;2023-02-13T05:12:37;100529.0;;;3.24;88.32
23361;BME280;11852;50.082;18.554;2023-02-13T05:13:44;100528.5;;;3.13;88.76
23361;BME280;11852;50.082;18.554;2023-02-13T05:14:51;100529.0;;;3.13;88.63
23361;BME280;11852;50.082;18.554;2023-02-13T05:15:58;100529.51;;;3.17;88.44
23361;BME280;11852;50.082;18.554;2023-02-13T05:17:05;100529.0;;;3.09;88.7
23361;BME280;11852;50.082;18.554;2023-02-13T05:18:13;100529.51;;;3.01;88.96
23361;BME280;11852;50.082;18.554;2023-02-13T05:19:20;100531.0;;;3.02;88.85
23361;BME280;11852;50.082;18.554;2023-02-13T05:20:27;100532.0;;;3.02;88.93
23361;BME280;11852;50.082;18.554;2023-02-13T05:21:39;100531.0;;;3.14;88.46
23361;BME280;11852;50.082;18.554;2023-02-13T05:22:52;100532.5;;;3.11;88.65
23361;BME280;11852;50.082;18.554;2023-02-13T05:23:58;100533.5;;;3.11;88.64
23361;BME280;11852;50.082;18.554;2023-02-13T05:25:05;100535.5;;;3.09;88.63
23361;BME280;11852;50.082;18.554;2023-02-13T05:26:12;100533.5;;;3.02;88.8
23361;BME280;11852;50.082;18.554;2023-02-13T05:27:19;100531.0;;;3.02;88.75
23361;BME280;11852;50.082;18.554;2023-02-13T05:28:31;100527.0;;;3.03;88.71
23361;BME280;11852;50.082;18.554;2023-02-13T05:29:38;100526.0;;;2.88;89.16
23361;BME280;11852;50.082;18.554;2023-02-13T05:30:44;100523.5;;;2.85;89.22
23361;BME280;11852;50.082;18.554;2023-02-13T05:31:53;100523.0;;;2.87;89.12
23361;BME280;11852;50.082;18.554;2023-02-13T05:32:59;100525.0;;;2.78;89.44
23361;BME280;11852;50.082;18.554;2023-02-13T05:34:06;100526.0;;;2.87;89.15
23361;BME280;11852;50.082;18.554;2023-02-13T05:35:13;100528.5;;;2.88;89.01
23361;BME280;11852;50.082;18.554;2023-02-13T05:36:20;100527.5;;;2.83;89.18
23361;BME280;11852;50.082;18.554;2023-02-13T05:37:27;100527.0;;;2.84;89.12
23361;BME280;11852;50.082;18.554;2023-02-13T05:38:35;100527.0;;;2.77;89.25
23361;BME280;11852;50.082;18.554;2023-02-13T05:39:41;100528.0;;;2.84;88.88
23361;BME280;11852;50.082;18.554;2023-02-13T05:40:48;100527.5;;;2.76;89.1
23361;BME280;11852;50.082;18.554;2023-02-13T05:41:55;100527.0;;;2.8;88.88
23361;BME280;11852;50.082;18.554;2023-02-13T05:43:03;100526.0;;;2.72;89.01
23361;BME280;11852;50.082;18.554;2023-02-13T05:44:10;100525.5;;;2.7;89.06
23361;BME280;11852;50.082;18.554;2023-02-13T05:45:17;100523.0;;;2.64;89.06
23361;BME280;11852;50.082;18.554;2023-02-13T05:46:24;100523.5;;;2.61;89.18
23361;BME280;11852;50.082;18.554;2023-02-13T05:47:31;100524.0;;;2.55;89.27
23361;BME280;11852;50.082;18.554;2023-02-13T05:48:37;100522.0;;;2.6;89.13
23361;BME280;11852;50.082;18.554;2023-02-13T05:49:44;100518.0;;;2.51;89.43
23361;BME280;11852;50.082;18.554;2023-02-13T05:50:51;100519.99;;;2.52;89.38
23361;BME280;11852;50.082;18.554;2023-02-13T05:51:58;100518.0;;;2.59;89.17
23361;BME280;11852;50.082;18.554;2023-02-13T05:53:05;100520.0;;;2.51;89.44
23361;BME280;11852;50.082;18.554;2023-02-13T05:54:12;100522.0;;;2.56;89.22
23361;BME280;11852;50.082;18.554;2023-02-13T05:55:19;100525.5;;;2.65;88.9
23361;BME280;11852;50.082;18.554;2023-02-13T05:56:26;100525.0;;;2.62;89.04
23361;BME280;11852;50.082;18.554;2023-02-13T05:57:33;100529.51;;;2.67;88.81
23361;BME280;11852;50.082;18.554;2023-02-13T05:58:40;100530.0;;;2.66;88.9
23361;BME280;11852;50.082;18.554;2023-02-13T05:59:47;100530.0;;;2.72;88.57
23361;BME280;11852;50.082;18.554;2023-02-13T06:00:57;100531.5;;;2.68;88.6
23361;BME280;11852;50.082;18.554;2023-02-13T06:02:07;100529.0;;;2.63;88.69
23361;BME280;11852;50.082;18.554;2023-02-13T06:03:14;100531.5;;;2.65;88.6
23361;BME280;11852;50.082;18.554;2023-02-13T06:04:22;100535.5;;;2.74;88.38
23361;BME280;11852;50.082;18.554;2023-02-13T06:05:29;100532.0;;;2.62;88.82
23361;BME280;11852;50.082;18.554;2023-02-13T06:06:35;100535.5;;;2.63;88.57
23361;BME280;11852;50.082;18.554;2023-02-13T06:07:42;100534.0;;;2.46;89.13
23361;BME280;11852;50.082;18.554;2023-02-13T06:08:50;100529.0;;;2.39;89.24
23361;BME280;11852;50.082;18.554;2023-02-13T06:09:57;100528.5;;;2.41;89.12
23361;BME280;11852;50.082;18.554;2023-02-13T06:11:04;100527.5;;;2.38;89.18
23361;BME280;11852;50.082;18.554;2023-02-13T06:12:11;100528.0;;;2.39;89.22
23361;BME280;11852;50.082;18.554;2023-02-13T06:13:18;100532.5;;;2.43;89.07
23361;BME280;11852;50.082;18.554;2023-02-13T06:14:25;100534.5;;;2.4;89.15
23361;BME280;11852;50.082;18.554;2023-02-13T06:15:32;100536.0;;;2.34;89.35
23361;BME280;11852;50.082;18.554;2023-02-13T06:16:39;100540.0;;;2.39;89.06
23361;BME280;11852;50.082;18.554;2023-02-13T06:17:46;100540.5;;;2.49;88.78
23361;BME280;11852;50.082;18.554;2023-02-13T06:18:53;100540.0;;;2.49;88.86
23361;BME280;11852;50.082;18.554;2023-02-13T06:20:00;100543.5;;;2.61;88.52
23361;BME280;11852;50.082;18.554;2023-02-13T06:21:07;100546.5;;;2.65;88.48
23361;BME280;11852;50.082;18.554;2023-02-13T06:22:13;100546.0;;;2.57;88.68
23361;BME280;11852;50.082;18.554;2023-02-13T06:23:20;100551.5;;;2.4;89.16
23361;BME280;11852;50.082;18.554;2023-02-13T06:24:29;100551.5;;;2.43;88.94
23361;BME280;11852;50.082;18.554;2023-02-13T06:25:36;100551.5;;;2.52;88.73
23361;BME280;11852;50.082;18.554;2023-02-13T06:26:43;100550.0;;;2.52;88.74
23361;BME280;11852;50.082;18.554;2023-02-13T06:27:50;100549.0;;;2.49;88.92
23361;BME280;11852;50.082;18.554;2023-02-13T06:28:57;100549.5;;;2.49;88.84
23361;BME280;11852;50.082;18.554;2023-02-13T06:30:05;100543.0;;;2.41;89.16
23361;BME280;11852;50.082;18.554;2023-02-13T06:31:12;100547.5;;;2.42;89.09
23361;BME280;11852;50.082;18.554;2023-02-13T06:32:19;100549.5;;;2.46;89.01
23361;BME280;11852;50.082;18.554;2023-02-13T06:33:26;100546.5;;;2.4;89.24
23361;BME280;11852;50.082;18.554;2023-02-13T06:34:33;100547.5;;;2.34;89.46
23361;BME280;11852;50.082;18.554;2023-02-13T06:35:40;100543.0;;;2.29;89.58
23361;BME280;11852;50.082;18.554;2023-02-13T06:36:47;100544.49;;;2.25;89.67
23361;BME280;11852;50.082;18.554;2023-02-13T06:37:54;100547.0;;;2.32;89.49
23361;BME280;11852;50.082;18.554;2023-02-13T06:39:01;100547.0;;;2.34;89.41
23361;BME280;11852;50.082;18.554;2023-02-13T06:40:09;100549.5;;;2.33;89.42